Aérodrome :
LOGIN :

S'inscrire | Disclaimer

   EN    FR    IT 

 










Légende :    VFR   VFR Marginal   IFR   IFR Intensif   IFR Très Intensif
Visi : 
Plafond : 
>= 8 km
>= 3000ft
5 à 8 km
1000 à 3000 ft
1500m à 5 km
500 à 1000 ft
800 à 1500m
200 à 500 ft
< 800m
< 200 ft
Symboles :   Orages  Brouillard  Fortes neiges  Fortes précipitations  Vent > 20 kt
SIGMETs :   Divers  Orages  Givrage  Turbulence  Onde Orograph.  Cendres Volcan.







- Altitude de l'aérodrome : 863 ft
- Code IATA : ZAZ


LEZG - Zaragoza Aragon

DERNIER METAR :
  • 141830Z 28014KT 9999 SCT050 10/05 Q1022

METARs EXPIRÉS :
  • 141800Z 28017KT 240V300 9999 BKN045 11/05 Q1021
  • 141730Z 28016KT 9999 SCT040 10/05 Q1021
  • 141700Z 29017KT 9999 SCT040 11/05 Q1021
  • 141630Z 29013KT 9999 FEW035 10/05 Q1021
  • 141600Z 30018KT 9999 FEW035 SCT050 12/05 Q1020

TAF TAF LEZG
Valide du 14 à 18h jusqu'au 15 à 18h UTC


141700Z 1418/1518 30015KT 9999 FEW030 TX17/1514Z TN05/1506Z
TEMPO 1420/1512 25007KT
Pas de NOTAMs connus pour ce terrain.



MET'MAP, la Météo Aéronautique d'un coup d'oeil ! - Copyright ORBIFLY Décembre 2007 - Disclaimer

ORBIFLY MET'MAP TEAM :

Programmation & Développement : Alexandra Zaïnal
Conception & Développement : Baudouin d'Aumeries
Co-Programmation & Développement : Marc-Olivier Méhu
Soutien technique & logistique : Manuel Goepfert

Contact : metmap@orbifly.com




SOURCES & CREDITS :

   NOAA